Terminal Aerodrome Forecast
Issued by NWS

Home | Current Version | Previous Version | Text Only | Print | Product List | Glossary On
Versions: 1 2 3 4 5 6 7 8 9 10 11 12 13 14 15 16 17
000
FTAK31 PAJN 030304 AAB
TAFAJN
TAF AMD
PAJN 030304Z 0303/0324 08004KT P6SM SCT200
     FM030600 VRB03KT P6SM FEW200
     FM031800 24008KT P6SM SKC=

USA.gov is the U.S. government's official web portal to all federal, state and local government web resources and services.